Time;durP1;ratioP1;P1;durP2;ratioP2;P2;SDS_P1;SDS_P2;PMS_P1;PMS_P2;Temp;Humidity;BMP_temperature;BMP_pressure;BME280_temperature;BME280_humidity;BME280_pressure;Samples;Min_cycle;Max_cycle;Signal;HPM_P1;HPM_P2
2023/01/09 00:00:26;;;;;;;1.20;1.20;;;10.80;80.00;;;;;;5069714;28;20382;-83
2023/01/09 00:02:52;;;;;;;1.52;1.20;;;10.80;79.90;;;;;;5053352;28;20032;-84
2023/01/09 00:05:19;;;;;;;1.65;1.15;;;10.80;79.90;;;;;;5054008;28;20143;-84
2023/01/09 00:07:45;;;;;;;1.30;1.20;;;10.80;79.90;;;;;;5035759;28;20075;-83
2023/01/09 00:10:11;;;;;;;1.30;1.20;;;10.90;80.00;;;;;;5068778;28;20132;-83
2023/01/09 00:12:37;;;;;;;1.27;1.17;;;10.90;80.00;;;;;;5055858;28;20025;-83
2023/01/09 00:15:04;;;;;;;2.47;1.40;;;10.90;80.00;;;;;;5072647;28;20044;-84
2023/01/09 00:17:30;;;;;;;1.70;1.35;;;10.80;79.90;;;;;;5072652;28;20025;-83
2023/01/09 00:19:57;;;;;;;1.17;1.10;;;10.80;79.90;;;;;;5055910;28;20462;-84
2023/01/09 00:22:23;;;;;;;1.17;1.10;;;10.90;79.90;;;;;;5055909;28;20489;-86
2023/01/09 00:24:49;;;;;;;1.20;1.10;;;10.90;80.00;;;;;;5056013;28;20060;-83
2023/01/09 00:27:14;;;;;;;1.30;1.20;;;10.90;80.00;;;;;;5039542;28;20068;-84
2023/01/09 00:29:41;;;;;;;1.30;1.20;;;10.80;79.90;;;;;;5039137;28;20455;-84
2023/01/09 00:32:09;;;;;;;1.20;1.10;;;10.90;80.00;;;;;;5039523;28;20025;-85
2023/01/09 00:34:38;;;;;;;1.35;1.15;;;10.80;79.90;;;;;;5039449;28;20500;-84
2023/01/09 00:37:10;;;;;;;1.40;1.20;;;10.90;80.00;;;;;;5055433;28;20107;-83
2023/01/09 00:39:37;;;;;;;1.33;1.23;;;10.80;80.00;;;;;;5055652;28;20029;-83
2023/01/09 00:42:05;;;;;;;1.10;1.10;;;10.80;80.00;;;;;;5089151;28;20450;-82
2023/01/09 00:44:38;;;;;;;1.40;1.30;;;10.80;80.00;;;;;;5072273;28;20027;-83
2023/01/09 00:47:11;;;;;;;1.00;1.00;;;10.80;80.00;;;;;;5055612;28;20028;-84
2023/01/09 00:49:37;;;;;;;1.00;1.00;;;10.80;80.00;;;;;;5089314;28;20029;-84
2023/01/09 00:52:05;;;;;;;1.52;1.20;;;10.80;80.00;;;;;;5055313;28;20504;-83
2023/01/09 00:54:31;;;;;;;1.15;1.10;;;10.80;80.00;;;;;;5055506;28;20025;-83
2023/01/09 00:56:58;;;;;;;1.10;1.10;;;10.80;79.90;;;;;;5071880;28;20060;-83
2023/01/09 00:59:25;;;;;;;1.10;1.10;;;10.80;80.00;;;;;;5055098;28;20445;-83
2023/01/09 01:01:51;;;;;;;1.20;1.08;;;10.80;80.00;;;;;;5055213;28;20478;-82
2023/01/09 01:09:44;;;;;;;1.27;1.10;;;10.80;80.00;;;;;;5055475;28;20432;-82
2023/01/09 01:12:10;;;;;;;1.05;1.00;;;10.70;79.90;;;;;;5055082;28;20029;-82
2023/01/09 01:14:37;;;;;;;1.17;1.17;;;10.80;80.00;;;;;;5038444;28;20026;-83
2023/01/09 01:17:04;;;;;;;1.40;1.30;;;10.70;80.00;;;;;;5072662;28;20037;-84
2023/01/09 01:19:30;;;;;;;1.35;1.02;;;10.80;80.00;;;;;;5055895;28;20381;-83
2023/01/09 01:21:56;;;;;;;1.25;1.15;;;10.70;80.00;;;;;;5071412;28;20128;-83
2023/01/09 01:24:22;;;;;;;1.13;1.10;;;10.70;80.00;;;;;;5070403;28;20033;-83
2023/01/09 01:26:47;;;;;;;1.08;1.08;;;10.70;80.00;;;;;;5038030;28;20025;-83
2023/01/09 01:29:13;;;;;;;0.90;0.90;;;10.70;80.00;;;;;;5055657;28;20426;-83
2023/01/09 01:31:39;;;;;;;1.10;1.10;;;10.60;79.90;;;;;;5037848;28;20068;-83
2023/01/09 01:34:04;;;;;;;1.23;1.23;;;10.70;80.00;;;;;;5054145;28;20056;-83
2023/01/09 01:36:30;;;;;;;1.10;1.10;;;10.60;79.90;;;;;;5070885;28;20025;-83
2023/01/09 01:38:56;;;;;;;1.00;1.00;;;10.60;79.90;;;;;;5054345;28;20040;-84
2023/01/09 01:41:30;;;;;;;1.10;1.10;;;10.60;80.00;;;;;;5055031;28;20604;-83
2023/01/09 01:44:02;;;;;;;1.00;1.00;;;10.60;79.90;;;;;;5038928;28;20132;-83
2023/01/09 01:46:30;;;;;;;1.00;1.00;;;10.60;79.90;;;;;;5054129;28;20497;-83
2023/01/09 01:49:13;;;;;;;1.05;1.05;;;10.60;79.90;;;;;;5037641;28;20025;-83
2023/01/09 01:51:46;;;;;;;1.58;1.00;;;10.50;79.90;;;;;;5071623;28;20086;-83
2023/01/09 01:54:19;;;;;;;1.13;1.13;;;10.50;79.90;;;;;;5053954;28;20469;-83
2023/01/09 01:56:49;;;;;;;1.10;1.10;;;10.50;79.90;;;;;;5070818;28;20031;-83
2023/01/09 01:59:33;;;;;;;1.10;1.10;;;10.50;79.90;;;;;;5053740;28;20150;-83
2023/01/09 02:02:01;;;;;;;1.02;1.02;;;10.50;80.00;;;;;;5054229;28;20404;-83
2023/01/09 02:04:29;;;;;;;1.00;1.00;;;10.50;79.90;;;;;;5037003;28;20105;-83
2023/01/09 02:06:59;;;;;;;1.70;1.20;;;10.40;79.90;;;;;;5087754;28;20029;-83
2023/01/09 02:09:25;;;;;;;1.20;1.10;;;10.40;80.00;;;;;;5053608;28;20029;-85
2023/01/09 02:11:55;;;;;;;1.13;1.10;;;10.40;79.90;;;;;;5054752;28;20397;-83
2023/01/09 02:14:24;;;;;;;1.13;1.10;;;10.40;80.00;;;;;;5054402;28;20052;-83
2023/01/09 02:17:13;;;;;;;1.13;1.10;;;10.40;80.00;;;;;;5054434;28;20482;-82
2023/01/09 02:20:19;;;;;;;1.20;1.10;;;10.40;80.00;;;;;;5077594;28;20048;-83
2023/01/09 02:23:17;;;;;;;1.00;1.00;;;10.30;79.90;;;;;;5053357;28;20040;-83
2023/01/09 02:26:12;;;;;;;1.00;1.00;;;10.30;79.90;;;;;;5054630;28;20041;-83
2023/01/09 02:29:10;;;;;;;1.20;1.20;;;10.30;79.90;;;;;;5053435;28;20025;-83
2023/01/09 02:31:39;;;;;;;1.30;1.20;;;10.30;79.90;;;;;;5053981;28;20041;-83
2023/01/09 02:34:13;;;;;;;1.30;1.20;;;10.30;79.90;;;;;;5054368;28;20028;-83
2023/01/09 02:36:54;;;;;;;1.55;1.17;;;10.30;80.00;;;;;;5053532;28;20082;-82
2023/01/09 02:39:36;;;;;;;1.30;1.20;;;10.20;79.90;;;;;;5054374;28;20052;-82
2023/01/09 02:42:22;;;;;;;1.42;1.27;;;10.20;79.90;;;;;;5053782;28;20043;-82
2023/01/09 02:44:48;;;;;;;1.27;1.17;;;10.20;80.00;;;;;;5052956;28;20029;-83
2023/01/09 02:47:14;;;;;;;1.30;1.20;;;10.20;79.90;;;;;;5053180;28;20466;-83
2023/01/09 02:49:49;;;;;;;1.13;1.13;;;10.10;79.90;;;;;;5053104;28;20090;-83
2023/01/09 02:52:40;;;;;;;1.30;1.20;;;10.10;79.90;;;;;;5086657;28;20488;-83
2023/01/09 02:55:47;;;;;;;1.30;1.20;;;10.10;80.00;;;;;;5053271;28;20444;-83
2023/01/09 02:58:34;;;;;;;1.20;1.10;;;10.10;80.60;;;;;;5054256;28;20047;-81
2023/01/09 03:01:23;;;;;;;1.25;1.17;;;10.10;79.90;;;;;;5053067;28;20037;-83
2023/01/09 03:04:14;;;;;;;1.30;1.20;;;10.10;79.90;;;;;;5069135;28;20508;-83
2023/01/09 03:07:05;;;;;;;1.33;1.23;;;10.10;80.00;;;;;;5053137;28;20075;-85
2023/01/09 03:09:37;;;;;;;1.10;1.10;;;10.00;80.00;;;;;;5053136;28;20067;-83
2023/01/09 03:12:21;;;;;;;1.40;1.30;;;10.00;80.00;;;;;;5053957;28;20075;-83
2023/01/09 03:14:52;;;;;;;1.40;1.30;;;10.00;80.00;;;;;;5052984;28;20033;-84
2023/01/09 03:17:32;;;;;;;1.55;1.40;;;10.00;80.00;;;;;;5070200;28;20068;-82
2023/01/09 03:20:01;;;;;;;1.98;1.33;;;10.00;80.00;;;;;;5052834;28;20443;-83
2023/01/09 03:22:27;;;;;;;1.30;1.20;;;9.90;80.00;;;;;;5053039;28;20044;-83
2023/01/09 03:24:52;;;;;;;1.45;1.30;;;9.90;80.00;;;;;;5052591;28;20037;-83
2023/01/09 03:27:18;;;;;;;1.30;1.20;;;9.90;80.00;;;;;;5036120;28;20033;-83
2023/01/09 03:29:44;;;;;;;1.30;1.20;;;9.90;80.00;;;;;;5053891;28;20029;-83
2023/01/09 03:32:10;;;;;;;1.30;1.20;;;9.90;80.00;;;;;;5069287;28;20039;-83
2023/01/09 03:34:35;;;;;;;1.52;1.42;;;9.90;79.90;;;;;;5069809;28;20091;-84
2023/01/09 03:37:03;;;;;;;1.20;1.20;;;9.90;80.00;;;;;;5053767;28;20029;-83
2023/01/09 03:39:30;;;;;;;1.50;1.40;;;9.90;80.00;;;;;;5086573;28;20531;-83
2023/01/09 03:41:56;;;;;;;1.15;1.15;;;9.90;80.00;;;;;;5069734;28;20490;-83
2023/01/09 03:44:22;;;;;;;1.52;1.30;;;9.80;80.00;;;;;;5069844;28;20157;-82
2023/01/09 03:46:49;;;;;;;1.27;1.23;;;9.80;80.00;;;;;;5037448;28;20035;-83
2023/01/09 03:49:16;;;;;;;1.40;1.30;;;9.80;80.00;;;;;;5039868;28;20033;-83
2023/01/09 03:51:42;;;;;;;1.30;1.20;;;9.80;80.00;;;;;;5057338;28;20112;-82
2023/01/09 03:54:08;;;;;;;1.30;1.20;;;9.80;80.00;;;;;;5073210;28;20033;-83
2023/01/09 03:56:34;;;;;;;1.65;1.55;;;9.80;80.10;;;;;;5056281;28;20025;-83
2023/01/09 03:58:59;;;;;;;1.33;1.23;;;9.80;80.10;;;;;;5072418;28;20029;-83
2023/01/09 04:01:25;;;;;;;1.40;1.30;;;9.70;80.00;;;;;;5072945;28;20083;-83
2023/01/09 04:03:51;;;;;;;1.10;1.10;;;9.70;80.00;;;;;;5055944;28;20096;-83
2023/01/09 04:06:17;;;;;;;1.40;1.30;;;9.70;80.00;;;;;;5056534;28;20033;-83
2023/01/09 04:08:42;;;;;;;1.40;1.30;;;9.70;80.00;;;;;;5056365;28;20033;-83
2023/01/09 04:11:08;;;;;;;2.00;1.45;;;9.70;80.10;;;;;;5089421;28;20037;-83
2023/01/09 04:13:34;;;;;;;1.33;1.23;;;9.60;80.00;;;;;;5039497;28;20025;-83
2023/01/09 04:16:00;;;;;;;1.67;1.35;;;9.70;80.10;;;;;;5039065;28;20040;-84
2023/01/09 04:18:25;;;;;;;1.40;1.30;;;9.60;80.00;;;;;;5056012;28;20425;-83
2023/01/09 04:20:51;;;;;;;1.20;1.20;;;9.60;80.00;;;;;;5055771;28;20393;-83
2023/01/09 04:23:17;;;;;;;1.63;1.40;;;9.60;80.00;;;;;;5055745;28;20041;-83
2023/01/09 04:25:42;;;;;;;1.40;1.30;;;9.60;80.00;;;;;;5072500;28;20029;-83
2023/01/09 04:28:08;;;;;;;1.98;1.40;;;9.60;80.00;;;;;;5072281;28;20390;-82
2023/01/09 04:30:34;;;;;;;1.52;1.38;;;9.60;80.00;;;;;;5072331;28;20025;-83
2023/01/09 04:33:00;;;;;;;1.30;1.30;;;9.50;80.00;;;;;;5039219;28;20079;-84
2023/01/09 04:35:25;;;;;;;1.50;1.40;;;9.50;80.00;;;;;;5072352;28;20044;-82
2023/01/09 04:37:51;;;;;;;1.55;1.45;;;9.50;80.10;;;;;;5071972;28;20070;-83
2023/01/09 04:40:17;;;;;;;2.30;1.58;;;9.50;80.00;;;;;;5071742;28;20490;-83
2023/01/09 04:42:43;;;;;;;1.30;1.30;;;9.50;80.10;;;;;;5055262;28;20033;-83
2023/01/09 04:45:10;;;;;;;1.50;1.40;;;9.40;80.00;;;;;;5038935;28;20033;-82
2023/01/09 04:47:36;;;;;;;2.22;1.42;;;9.40;80.10;;;;;;5055402;28;20074;-82
2023/01/09 04:50:02;;;;;;;1.90;1.58;;;9.40;80.10;;;;;;5089138;28;20112;-84
2023/01/09 04:52:28;;;;;;;1.20;1.20;;;9.40;80.10;;;;;;5072080;28;20503;-84
2023/01/09 04:54:53;;;;;;;1.77;1.42;;;9.40;80.10;;;;;;5038820;28;20385;-84
2023/01/09 04:57:19;;;;;;;1.40;1.30;;;9.40;80.10;;;;;;5071838;28;20033;-83
2023/01/09 04:59:45;;;;;;;1.50;1.40;;;9.30;80.00;;;;;;5071850;28;20025;-83
2023/01/09 05:02:11;;;;;;;1.50;1.40;;;9.30;80.10;;;;;;5039109;28;20041;-84
2023/01/09 05:04:37;;;;;;;1.70;1.40;;;9.30;80.10;;;;;;5054872;28;20045;-83
2023/01/09 05:07:03;;;;;;;2.70;1.58;;;9.30;80.10;;;;;;5039250;28;20481;-82
2023/01/09 05:09:29;;;;;;;1.73;1.60;;;9.30;80.10;;;;;;5056615;28;20430;-83
2023/01/09 05:11:54;;;;;;;1.52;1.42;;;9.30;80.10;;;;;;5055815;28;20485;-83
2023/01/09 05:14:20;;;;;;;1.58;1.48;;;9.20;80.10;;;;;;5039156;28;20071;-82
2023/01/09 05:16:46;;;;;;;1.67;1.40;;;9.30;80.20;;;;;;5055086;28;20470;-82
2023/01/09 05:19:12;;;;;;;1.50;1.40;;;9.20;80.10;;;;;;5054912;28;20029;-83
2023/01/09 05:21:37;;;;;;;1.60;1.50;;;9.30;80.20;;;;;;5072214;28;20029;-84
2023/01/09 05:24:03;;;;;;;1.50;1.40;;;9.20;80.20;;;;;;5055303;28;20037;-82
2023/01/09 05:26:29;;;;;;;1.50;1.40;;;9.20;80.20;;;;;;5054428;28;20036;-83
2023/01/09 05:28:55;;;;;;;1.70;1.60;;;9.20;80.20;;;;;;5054473;28;20124;-83
2023/01/09 05:31:22;;;;;;;1.60;1.50;;;9.20;80.20;;;;;;5055657;28;20041;-83
2023/01/09 05:33:48;;;;;;;1.63;1.38;;;9.20;80.20;;;;;;5054489;28;20025;-83
2023/01/09 05:36:14;;;;;;;1.75;1.40;;;9.20;80.20;;;;;;5037880;28;20040;-83
2023/01/09 05:38:39;;;;;;;2.22;1.60;;;9.20;80.30;;;;;;5071196;28;20111;-86
2023/01/09 05:41:06;;;;;;;2.15;1.40;;;9.10;80.20;;;;;;5070684;28;20187;-83
2023/01/09 05:43:31;;;;;;;1.50;1.40;;;9.20;80.30;;;;;;5038279;28;20028;-83
2023/01/09 05:45:57;;;;;;;1.63;1.50;;;9.20;80.30;;;;;;5037378;28;20024;-82
2023/01/09 05:48:23;;;;;;;1.75;1.40;;;9.10;80.30;;;;;;5037295;28;20424;-83
2023/01/09 05:50:49;;;;;;;1.40;1.30;;;9.10;80.30;;;;;;5070581;28;20045;-83
2023/01/09 05:53:14;;;;;;;1.88;1.40;;;9.10;80.30;;;;;;5038159;28;20063;-84
2023/01/09 05:55:40;;;;;;;1.38;1.27;;;9.10;80.30;;;;;;5071014;28;20086;-82
2023/01/09 05:58:06;;;;;;;1.70;1.60;;;9.10;80.20;;;;;;5054456;28;20079;-83
2023/01/09 06:00:32;;;;;;;1.88;1.45;;;9.10;80.20;;;;;;5087066;28;20049;-83
2023/01/09 06:02:58;;;;;;;1.33;1.25;;;9.10;80.30;;;;;;5070586;28;20029;-84
2023/01/09 06:05:24;;;;;;;1.70;1.40;;;9.10;80.20;;;;;;5037045;28;20053;-81
2023/01/09 06:07:49;;;;;;;1.98;1.30;;;9.10;80.30;;;;;;5053868;28;20037;-83
2023/01/09 06:10:15;;;;;;;2.25;1.80;;;9.10;80.30;;;;;;5037041;28;20131;-82
2023/01/09 06:12:46;;;;;;;1.33;1.23;;;9.10;80.30;;;;;;5036645;28;20064;-84
2023/01/09 06:15:14;;;;;;;2.15;1.48;;;9.10;80.30;;;;;;5053832;28;20033;-83
2023/01/09 06:17:40;;;;;;;1.63;1.40;;;9.10;80.30;;;;;;5038020;28;20024;-82
2023/01/09 06:20:06;;;;;;;1.98;1.60;;;9.10;80.30;;;;;;5053448;28;20037;-82
2023/01/09 06:22:32;;;;;;;1.42;1.33;;;9.10;80.30;;;;;;5053559;28;20029;-83
2023/01/09 06:24:58;;;;;;;1.63;1.50;;;9.00;80.30;;;;;;5052667;28;20053;-84
2023/01/09 06:27:24;;;;;;;1.70;1.48;;;9.10;80.30;;;;;;5054715;28;20025;-80
2023/01/09 06:29:49;;;;;;;1.55;1.45;;;9.00;80.30;;;;;;5035862;28;20036;-80
2023/01/09 06:32:15;;;;;;;1.60;1.40;;;9.10;81.00;;;;;;5036361;28;20029;-81
2023/01/09 06:34:41;;;;;;;1.70;1.50;;;9.10;80.30;;;;;;5036405;28;20045;-81
2023/01/09 06:37:07;;;;;;;2.17;1.38;;;9.10;80.30;;;;;;5036157;28;20116;-82
2023/01/09 06:39:32;;;;;;;1.67;1.30;;;9.10;81.00;;;;;;5054404;28;20032;-82
2023/01/09 06:41:58;;;;;;;1.75;1.55;;;9.10;80.30;;;;;;5086467;28;20049;-82
2023/01/09 06:44:24;;;;;;;1.67;1.38;;;9.10;80.30;;;;;;5069819;28;20171;-82
2023/01/09 06:46:50;;;;;;;1.50;1.33;;;9.10;80.30;;;;;;5036241;28;20021;-83
2023/01/09 06:49:16;;;;;;;2.30;1.40;;;9.10;80.30;;;;;;5053302;28;20040;-84
2023/01/09 06:51:42;;;;;;;1.40;1.30;;;9.10;80.30;;;;;;5070281;28;20041;-84
2023/01/09 06:54:08;;;;;;;1.40;1.30;;;9.10;80.30;;;;;;5070898;28;20033;-82
2023/01/09 06:56:34;;;;;;;1.35;1.25;;;9.10;80.40;;;;;;5053337;28;20025;-84
2023/01/09 06:59:00;;;;;;;1.50;1.40;;;9.10;80.30;;;;;;5053337;28;20048;-84
2023/01/09 07:01:26;;;;;;;1.55;1.40;;;9.00;80.30;;;;;;5053221;28;20045;-85
2023/01/09 07:03:52;;;;;;;1.50;1.40;;;9.10;80.30;;;;;;5036666;28;20032;-84
2023/01/09 07:06:18;;;;;;;1.45;1.35;;;9.10;80.40;;;;;;5053845;28;20059;-84
2023/01/09 07:08:44;;;;;;;2.10;1.60;;;9.10;80.30;;;;;;5053212;28;20102;-84
2023/01/09 07:11:10;;;;;;;1.70;1.42;;;9.00;80.30;;;;;;5086318;28;20025;-84
2023/01/09 07:13:37;;;;;;;1.38;1.27;;;9.10;80.30;;;;;;5069614;28;20090;-85
2023/01/09 07:16:04;;;;;;;2.05;1.50;;;9.10;80.40;;;;;;5054096;28;20377;-84
2023/01/09 07:18:30;;;;;;;1.40;1.30;;;9.10;80.40;;;;;;5069512;28;20103;-83
2023/01/09 07:20:56;;;;;;;1.65;1.42;;;9.10;80.40;;;;;;5052264;28;20033;-82
2023/01/09 07:23:22;;;;;;;2.08;1.50;;;9.10;80.40;;;;;;5035999;28;20140;-83
2023/01/09 07:25:51;;;;;;;1.75;1.38;;;9.10;80.40;;;;;;5037041;28;20032;-84
2023/01/09 07:28:16;;;;;;;1.80;1.40;;;9.10;80.40;;;;;;5052720;28;20033;-84
2023/01/09 07:30:42;;;;;;;1.42;1.30;;;9.10;80.40;;;;;;5053587;28;20033;-84
2023/01/09 07:33:08;;;;;;;1.40;1.30;;;9.10;80.40;;;;;;5036220;28;20037;-83
2023/01/09 07:35:34;;;;;;;1.58;1.48;;;9.10;80.40;;;;;;5036867;28;20036;-83
2023/01/09 07:37:59;;;;;;;1.40;1.27;;;9.10;80.40;;;;;;5052516;28;20082;-83
2023/01/09 07:40:25;;;;;;;1.75;1.35;;;9.10;80.40;;;;;;5052692;28;20045;-82
2023/01/09 07:42:52;;;;;;;1.60;1.50;;;9.10;80.40;;;;;;5069131;28;20033;-83
2023/01/09 07:45:18;;;;;;;1.33;1.23;;;9.10;80.40;;;;;;5052555;28;20036;-82
2023/01/09 07:47:44;;;;;;;1.63;1.40;;;9.10;80.40;;;;;;5069938;28;20033;-83
2023/01/09 07:50:10;;;;;;;1.70;1.60;;;9.10;80.40;;;;;;5068913;28;20462;-83
2023/01/09 07:52:36;;;;;;;1.55;1.40;;;9.10;80.40;;;;;;5036186;28;20075;-83
2023/01/09 07:55:02;;;;;;;1.58;1.25;;;9.20;80.40;;;;;;5035858;28;20025;-83
2023/01/09 07:57:29;;;;;;;1.40;1.30;;;9.20;80.50;;;;;;5036128;28;20033;-83
2023/01/09 07:59:55;;;;;;;2.33;1.30;;;9.10;80.40;;;;;;5069148;28;20040;-83
2023/01/09 08:02:21;;;;;;;1.50;1.40;;;9.20;80.50;;;;;;5052583;28;20041;-83
2023/01/09 08:04:46;;;;;;;1.52;1.42;;;9.10;80.40;;;;;;5035898;28;20087;-84
2023/01/09 08:07:12;;;;;;;1.45;1.35;;;9.20;80.50;;;;;;5035636;28;20025;-83
2023/01/09 08:09:38;;;;;;;2.05;1.40;;;9.20;80.50;;;;;;5035622;28;20033;-83
2023/01/09 08:12:04;;;;;;;1.80;1.35;;;9.20;80.50;;;;;;5052858;28;20037;-84
2023/01/09 08:14:30;;;;;;;2.05;1.20;;;9.20;80.50;;;;;;5052421;28;20489;-83
2023/01/09 08:16:56;;;;;;;2.10;1.50;;;9.20;80.40;;;;;;5070004;28;20065;-84
2023/01/09 08:19:22;;;;;;;2.72;1.40;;;9.20;80.50;;;;;;5052444;28;20029;-84
2023/01/09 08:21:48;;;;;;;2.13;1.60;;;9.20;80.40;;;;;;5035886;28;20124;-84
2023/01/09 08:24:14;;;;;;;1.52;1.40;;;9.30;80.50;;;;;;5035837;28;20115;-83
2023/01/09 08:26:40;;;;;;;1.40;1.30;;;9.20;80.50;;;;;;5052682;28;20468;-84
2023/01/09 08:29:06;;;;;;;1.70;1.55;;;9.20;80.40;;;;;;5069677;28;20370;-84
2023/01/09 08:31:31;;;;;;;1.27;1.27;;;9.30;80.50;;;;;;5052260;28;20029;-84
2023/01/09 08:33:57;;;;;;;1.60;1.40;;;9.30;80.50;;;;;;5038522;28;20492;-84
2023/01/09 08:36:23;;;;;;;1.58;1.45;;;9.30;80.40;;;;;;5073384;28;20026;-84
2023/01/09 08:38:49;;;;;;;1.80;1.40;;;9.30;80.50;;;;;;5022819;28;20037;-84
2023/01/09 08:49:26;;;;;;;2.03;1.50;;;9.30;80.50;;;;;;5056582;28;20033;-83
2023/01/09 08:51:52;;;;;;;2.00;1.50;;;9.30;80.50;;;;;;5056664;28;20055;-85
2023/01/09 08:54:18;;;;;;;2.00;1.60;;;9.30;80.40;;;;;;5038882;28;20059;-84
2023/01/09 08:56:44;;;;;;;1.88;1.65;;;9.30;80.50;;;;;;5055615;28;20031;-85
2023/01/09 08:59:10;;;;;;;2.70;1.60;;;9.30;80.50;;;;;;5089553;28;20037;-85
2023/01/09 09:01:36;;;;;;;1.90;1.67;;;9.30;80.50;;;;;;5038738;28;20037;-84
2023/01/09 09:04:04;;;;;;;2.78;1.70;;;9.30;80.50;;;;;;5056802;28;20078;-85
2023/01/09 09:06:31;;;;;;;3.35;2.00;;;9.30;80.50;;;;;;5072290;28;20473;-84
2023/01/09 09:09:01;;;;;;;2.03;1.60;;;9.40;80.50;;;;;;5056083;28;20025;-84
2023/01/09 09:11:27;;;;;;;2.00;1.80;;;9.30;80.50;;;;;;5055833;28;20033;-84
2023/01/09 09:13:53;;;;;;;1.83;1.60;;;9.40;80.60;;;;;;5055377;28;20033;-85
2023/01/09 09:16:19;;;;;;;1.60;1.50;;;9.40;80.60;;;;;;5038837;28;20094;-85
2023/01/09 09:18:44;;;;;;;1.60;1.50;;;9.40;80.60;;;;;;5055282;28;20115;-85
2023/01/09 09:21:10;;;;;;;1.70;1.60;;;9.40;80.60;;;;;;5039141;28;20408;-84
2023/01/09 09:23:36;;;;;;;1.80;1.60;;;9.40;80.50;;;;;;5071824;28;20025;-84
2023/01/09 09:26:01;;;;;;;1.88;1.77;;;9.40;80.50;;;;;;5038157;28;20031;-84
2023/01/09 09:28:27;;;;;;;1.70;1.60;;;9.40;80.50;;;;;;5054966;28;20036;-84
2023/01/09 09:30:53;;;;;;;1.60;1.50;;;9.40;80.50;;;;;;5021705;28;20028;-84
2023/01/09 09:33:18;;;;;;;2.15;1.90;;;9.40;80.50;;;;;;5055085;28;20440;-84
2023/01/09 09:35:44;;;;;;;1.77;1.60;;;9.50;80.60;;;;;;5054162;28;20025;-85
2023/01/09 09:38:12;;;;;;;1.95;1.70;;;9.40;80.50;;;;;;5071298;28;20416;-84
2023/01/09 09:40:43;;;;;;;1.83;1.73;;;9.50;80.60;;;;;;5038574;28;20032;-83
2023/01/09 09:46:38;;;;;;;2.28;1.90;;;9.50;80.60;;;;;;5055204;28;20033;-84
2023/01/09 09:49:29;;;;;;;2.45;1.73;;;9.50;80.60;;;;;;5055593;28;20466;-84
2023/01/09 09:52:09;;;;;;;1.80;1.70;;;9.50;80.60;;;;;;5054533;28;20036;-84
2023/01/09 09:54:41;;;;;;;1.92;1.70;;;9.50;80.60;;;;;;5054469;28;20526;-83
2023/01/09 09:57:14;;;;;;;1.80;1.65;;;9.50;80.60;;;;;;5056095;28;20032;-85
2023/01/09 09:59:42;;;;;;;1.70;1.60;;;9.50;80.60;;;;;;5071670;28;20029;-84
2023/01/09 10:02:24;;;;;;;1.73;1.63;;;9.50;80.60;;;;;;5055367;28;20063;-84
2023/01/09 10:04:59;;;;;;;1.70;1.60;;;9.50;80.80;;;;;;5055825;28;20068;-84
2023/01/09 10:07:33;;;;;;;2.53;1.73;;;9.50;80.70;;;;;;5054815;28;20474;-85
2023/01/09 10:10:03;;;;;;;2.20;1.60;;;9.50;80.60;;;;;;5054321;28;20060;-84
2023/01/09 10:12:30;;;;;;;2.50;1.80;;;9.60;80.60;;;;;;5055885;28;20044;-85
2023/01/09 10:15:01;;;;;;;2.00;1.85;;;9.60;80.60;;;;;;5054976;28;20016;-84
2023/01/09 10:18:17;;;;;;;2.45;1.70;;;9.60;80.70;;;;;;5054101;28;20112;-83
2023/01/09 10:21:15;;;;;;;1.80;1.70;;;9.60;80.70;;;;;;5053141;28;20055;-84
2023/01/09 10:23:53;;;;;;;2.40;1.80;;;9.60;80.60;;;;;;5071457;28;20033;-84
2023/01/09 10:26:34;;;;;;;2.67;2.10;;;9.60;80.60;;;;;;5054216;28;20082;-84
2023/01/09 10:29:27;;;;;;;2.20;1.90;;;9.70;80.70;;;;;;5055217;28;20033;-83
2023/01/09 10:31:52;;;;;;;3.60;2.08;;;9.60;80.70;;;;;;5054560;28;20033;-84
2023/01/09 10:35:04;;;;;;;1.98;1.80;;;9.60;80.60;;;;;;5053682;28;20187;-84
2023/01/09 10:37:36;;;;;;;2.22;2.03;;;9.70;80.80;;;;;;5036642;28;20040;-84
2023/01/09 10:40:06;;;;;;;2.22;2.00;;;9.70;80.70;;;;;;5053402;28;20029;-84
2023/01/09 10:42:56;;;;;;;2.28;1.80;;;9.70;80.80;;;;;;5054406;28;20090;-84
2023/01/09 10:45:27;;;;;;;2.30;1.90;;;9.70;80.90;;;;;;5053284;28;20048;-84
2023/01/09 10:48:00;;;;;;;2.72;1.98;;;9.70;80.80;;;;;;5087733;28;20096;-85
2023/01/09 10:50:32;;;;;;;2.17;1.90;;;9.70;80.80;;;;;;5053684;28;20503;-84
2023/01/09 10:53:01;;;;;;;2.67;1.88;;;9.70;80.70;;;;;;5054053;28;20033;-82
2023/01/09 10:55:46;;;;;;;2.28;1.98;;;9.70;80.70;;;;;;5052928;28;20025;-81
2023/01/09 10:58:14;;;;;;;2.80;1.98;;;9.80;80.80;;;;;;5053271;28;20025;-85
2023/01/09 11:00:41;;;;;;;2.47;1.98;;;9.80;80.70;;;;;;5070809;28;20025;-84
2023/01/09 11:03:19;;;;;;;2.17;1.98;;;9.80;80.70;;;;;;5036568;28;20063;-85
2023/01/09 11:05:54;;;;;;;2.42;1.90;;;9.80;80.70;;;;;;5052806;28;20045;-85
2023/01/09 11:08:20;;;;;;;;;;;9.80;80.70;;;;;;5053262;28;20174;-84
2023/01/09 11:10:48;;;;;;;2.47;1.92;;;9.80;80.50;;;;;;5052828;28;19958;-84
2023/01/09 11:13:21;;;;;;;2.70;2.05;;;9.90;80.50;;;;;;5053595;28;20029;-84
2023/01/09 11:16:09;;;;;;;2.03;1.80;;;9.90;80.50;;;;;;5053697;28;20476;-85
2023/01/09 11:18:47;;;;;;;2.38;1.83;;;9.90;80.60;;;;;;5053103;28;20063;-85
2023/01/09 11:21:20;;;;;;;2.70;2.10;;;9.90;80.50;;;;;;5054090;28;20116;-85
2023/01/09 11:23:46;;;;;;;2.85;1.80;;;9.90;80.50;;;;;;5036569;28;20484;-84
2023/01/09 11:26:25;;;;;;;1.95;1.80;;;9.90;80.50;;;;;;5036562;28;20112;-85
2023/01/09 11:29:05;;;;;;;2.90;2.08;;;9.90;80.60;;;;;;5053106;28;20024;-82
2023/01/09 11:31:31;;;;;;;2.45;1.92;;;9.90;80.60;;;;;;5053121;28;20476;-81
2023/01/09 11:33:57;;;;;;;2.13;1.92;;;10.00;80.60;;;;;;5052598;28;20083;-84
2023/01/09 11:36:24;;;;;;;2.50;2.00;;;10.00;80.50;;;;;;5070424;28;20029;-84
2023/01/09 11:38:52;;;;;;;2.20;2.00;;;10.00;80.60;;;;;;5069458;28;20053;-83
2023/01/09 11:41:25;;;;;;;2.45;2.00;;;10.00;80.60;;;;;;5052682;28;20033;-85
2023/01/09 11:43:52;;;;;;;2.00;1.80;;;10.00;80.70;;;;;;5052769;28;20453;-83
2023/01/09 11:46:36;;;;;;;2.05;1.90;;;10.00;80.60;;;;;;5053394;28;20029;-85
2023/01/09 11:49:07;;;;;;;2.10;1.90;;;10.00;80.70;;;;;;5053195;28;20056;-85
2023/01/09 11:51:35;;;;;;;2.20;1.98;;;10.00;80.60;;;;;;5054206;28;20029;-84
2023/01/09 11:54:15;;;;;;;2.20;2.00;;;10.00;80.60;;;;;;5086465;28;20044;-85
2023/01/09 11:56:41;;;;;;;2.08;1.88;;;10.00;80.70;;;;;;5069364;28;20025;-84
2023/01/09 11:59:12;;;;;;;1.85;1.70;;;10.10;80.60;;;;;;5052633;28;20025;-85
2023/01/09 12:02:02;;;;;;;2.13;1.92;;;10.10;80.80;;;;;;5053247;28;20090;-84
2023/01/09 12:04:36;;;;;;;2.10;1.65;;;10.10;80.60;;;;;;5052442;28;20041;-84
2023/01/09 12:07:38;;;;;;;2.08;1.80;;;10.10;80.60;;;;;;5069448;28;20039;-84
2023/01/09 12:10:42;;;;;;;1.63;1.52;;;10.10;80.70;;;;;;5073946;28;20073;-84
2023/01/09 12:13:26;;;;;;;1.90;1.60;;;10.10;80.50;;;;;;5072287;28;20115;-84
2023/01/09 12:16:03;;;;;;;2.08;1.90;;;10.10;80.60;;;;;;5055068;28;20037;-83
2023/01/09 12:18:41;;;;;;;2.63;2.00;;;10.10;80.70;;;;;;5056095;28;20035;-84
2023/01/09 12:21:53;;;;;;;1.70;1.60;;;10.10;80.70;;;;;;5057236;28;20043;-83
2023/01/09 12:24:22;;;;;;;2.33;1.40;;;10.20;80.80;;;;;;5038992;28;20135;-84
2023/01/09 12:27:46;;;;;;;2.65;1.60;;;10.20;80.70;;;;;;5056012;28;20028;-84
2023/01/09 12:30:27;;;;;;;3.30;1.70;;;10.20;80.80;;;;;;5041206;28;20075;-84
2023/01/09 12:33:24;;;;;;;2.42;1.80;;;10.20;80.70;;;;;;5055805;28;20037;-83
2023/01/09 12:36:31;;;;;;;2.05;1.60;;;10.20;80.70;;;;;;5038670;28;20102;-83
2023/01/09 12:39:28;;;;;;;1.58;1.48;;;10.20;80.70;;;;;;5055961;28;20029;-83
2023/01/09 12:42:11;;;;;;;1.98;1.50;;;10.30;80.70;;;;;;5056015;28;20037;-83
2023/01/09 12:45:04;;;;;;;1.95;1.70;;;10.30;80.70;;;;;;5055407;28;20398;-83
2023/01/09 12:48:22;;;;;;;1.45;1.38;;;10.30;80.70;;;;;;5038569;28;20064;-83
2023/01/09 12:51:00;;;;;;;2.55;1.70;;;10.30;80.60;;;;;;5049746;28;20044;-83
2023/01/09 12:53:37;;;;;;;1.77;1.60;;;10.30;80.50;;;;;;5056613;28;20096;-84
2023/01/09 12:56:07;;;;;;;2.58;1.63;;;10.40;80.50;;;;;;5073143;28;20036;-84
2023/01/09 12:58:45;;;;;;;2.10;1.60;;;10.40;80.50;;;;;;5055733;28;20115;-83
2023/01/09 13:01:32;;;;;;;1.88;1.55;;;10.40;80.50;;;;;;5072978;28;20355;-83
2023/01/09 13:04:23;;;;;;;3.10;1.70;;;10.50;80.50;;;;;;5055571;28;20020;-84
2023/01/09 13:07:03;;;;;;;1.98;1.77;;;10.50;80.50;;;;;;5072433;28;20128;-84
2023/01/09 13:09:38;;;;;;;2.08;1.75;;;10.50;80.50;;;;;;5055709;28;20365;-84
2023/01/09 13:12:24;;;;;;;1.85;1.70;;;10.50;80.50;;;;;;5056418;28;20025;-83
2023/01/09 13:15:04;;;;;;;1.80;1.70;;;10.60;80.50;;;;;;5055348;28;20025;-83
2023/01/09 13:17:50;;;;;;;2.05;1.85;;;10.60;80.30;;;;;;5055944;28;20025;-83
2023/01/09 13:20:27;;;;;;;;;;;10.60;80.30;;;;;;5088085;28;20057;-83
2023/01/09 13:22:54;;;;;;;2.20;1.50;;;10.60;80.10;;;;;;5056302;28;19915;-83
2023/01/09 13:25:43;;;;;;;2.03;1.50;;;10.60;79.90;;;;;;5038423;28;20032;-83
2023/01/09 13:28:15;;;;;;;2.35;1.58;;;10.70;80.10;;;;;;5072462;28;20037;-84
2023/01/09 13:30:54;;;;;;;1.70;1.60;;;10.70;80.10;;;;;;5071392;28;20124;-84